EmailTwitter


Observations de surface / France / LFMK (07635)

Régions: Québec | Canada | États-Unis | Europe | France | UK | Elsewhere
Station
Affichage
Infos & localisation pour LFMK (07635) | Aide pour décoder les METARs

Observations prises le 2017-04-23 à 09H30 UTC à CARCASSONNE/SALV, FR (LFMK)

Température: 20.0 Celsius

Point de rosée: 6.0 Celsius

Humidité relative: 40%

Vents: Variable à 2 km/h ou 1 noeuds.

Pression au niveau moyen de la mer: 101.80 kilopascals.

Observation METAR:

LFMK 230930Z AUTO VRB01KT CAVOK 20/06 Q1018 NOSIG =